sensor_id;sensor_type;location;lat;lon;timestamp;pressure;altitude;pressure_sealevel;temperature;humidity
43161;BME280;40968;52.342;5.528;2023-02-16T00:01:16;102215.22;;;5.02;70.14
43161;BME280;40968;52.342;5.528;2023-02-16T00:03:43;102364.22;;;5.90;70.44
43161;BME280;40968;52.342;5.528;2023-02-16T00:06:10;102359.88;;;5.87;70.40
43161;BME280;40968;52.342;5.528;2023-02-16T00:08:40;102363.44;;;5.86;70.26
43161;BME280;40968;52.342;5.528;2023-02-16T00:11:12;102236.41;;;5.05;70.46
43161;BME280;40968;52.342;5.528;2023-02-16T00:13:58;102363.81;;;5.74;70.76
43161;BME280;40968;52.342;5.528;2023-02-16T00:16:26;102337.56;;;5.61;70.75
43161;BME280;40968;52.342;5.528;2023-02-16T00:18:52;102368.13;;;5.78;70.77
43161;BME280;40968;52.342;5.528;2023-02-16T00:21:19;102261.06;;;5.10;70.89
43161;BME280;40968;52.342;5.528;2023-02-16T00:23:46;102365.75;;;5.69;70.95
43161;BME280;40968;52.342;5.528;2023-02-16T00:26:14;102357.09;;;5.60;71.32
43161;BME280;40968;52.342;5.528;2023-02-16T00:28:42;102340.38;;;5.57;71.18
43161;BME280;40968;52.342;5.528;2023-02-16T00:31:15;102271.78;;;5.07;71.34
43161;BME280;40968;52.342;5.528;2023-02-16T00:33:44;102355.09;;;5.69;71.34
43161;BME280;40968;52.342;5.528;2023-02-16T00:36:10;102361.38;;;5.66;71.51
43161;BME280;40968;52.342;5.528;2023-02-16T00:38:37;102327.38;;;5.46;71.52
43161;BME280;40968;52.342;5.528;2023-02-16T00:41:04;102242.81;;;4.97;71.66
43161;BME280;40968;52.342;5.528;2023-02-16T00:43:51;102352.66;;;5.61;71.79
43161;BME280;40968;52.342;5.528;2023-02-16T00:46:19;102309.03;;;5.37;71.97
43161;BME280;40968;52.342;5.528;2023-02-16T00:48:47;102238.59;;;4.90;71.93
43161;BME280;40968;52.342;5.528;2023-02-16T00:51:14;102297.91;;;5.22;72.03
43161;BME280;40968;52.342;5.528;2023-02-16T00:53:40;102293.44;;;5.24;72.11
43161;BME280;40968;52.342;5.528;2023-02-16T00:56:08;102299.66;;;5.23;72.21
43161;BME280;40968;52.342;5.528;2023-02-16T00:58:36;102346.72;;;5.51;72.01
43161;BME280;40968;52.342;5.528;2023-02-16T01:01:07;102346.78;;;5.50;72.16
43161;BME280;40968;52.342;5.528;2023-02-16T01:03:34;102277.94;;;5.09;72.48
43161;BME280;40968;52.342;5.528;2023-02-16T01:06:03;102306.72;;;5.24;72.42
43161;BME280;40968;52.342;5.528;2023-02-16T01:08:47;102297.91;;;5.22;72.76
43161;BME280;40968;52.342;5.528;2023-02-16T01:11:31;102277.88;;;5.10;72.83
43161;BME280;40968;52.342;5.528;2023-02-16T01:13:58;102273.56;;;5.06;72.83
43161;BME280;40968;52.342;5.528;2023-02-16T01:16:30;102333.69;;;5.42;72.99
43161;BME280;40968;52.342;5.528;2023-02-16T01:18:58;102247.63;;;4.83;72.94
43161;BME280;40968;52.342;5.528;2023-02-16T01:21:26;102344.44;;;5.39;73.17
43161;BME280;40968;52.342;5.528;2023-02-16T01:23:53;102342.72;;;5.36;73.13
43161;BME280;40968;52.342;5.528;2023-02-16T01:26:20;102270.38;;;4.93;73.40
43161;BME280;40968;52.342;5.528;2023-02-16T01:28:47;102332.09;;;5.36;73.40
43161;BME280;40968;52.342;5.528;2023-02-16T01:31:14;102327.69;;;5.35;73.43
43161;BME280;40968;52.342;5.528;2023-02-16T01:33:41;102259.66;;;4.96;73.52
43161;BME280;40968;52.342;5.528;2023-02-16T01:36:21;102293.81;;;5.10;73.60
43161;BME280;40968;52.342;5.528;2023-02-16T01:38:49;102317.16;;;5.30;73.79
43161;BME280;40968;52.342;5.528;2023-02-16T01:41:21;102289.31;;;5.14;73.68
43161;BME280;40968;52.342;5.528;2023-02-16T01:43:56;102320.78;;;5.29;73.82
43161;BME280;40968;52.342;5.528;2023-02-16T01:46:28;102324.34;;;5.28;73.95
43161;BME280;40968;52.342;5.528;2023-02-16T01:48:58;102245.88;;;4.82;73.92
43161;BME280;40968;52.342;5.528;2023-02-16T01:51:28;102286.06;;;5.03;73.91
43161;BME280;40968;52.342;5.528;2023-02-16T01:54:06;102321.78;;;5.24;73.86
43161;BME280;40968;52.342;5.528;2023-02-16T01:56:40;102312.13;;;5.21;74.04
43161;BME280;40968;52.342;5.528;2023-02-16T01:59:13;102313.00;;;5.22;74.07
43161;BME280;40968;52.342;5.528;2023-02-16T02:01:52;102275.59;;;4.96;74.05
43161;BME280;40968;52.342;5.528;2023-02-16T02:04:23;102272.34;;;4.87;73.97
43161;BME280;40968;52.342;5.528;2023-02-16T02:07:14;102265.22;;;4.87;74.01
43161;BME280;40968;52.342;5.528;2023-02-16T02:09:50;102319.34;;;5.16;74.21
43161;BME280;40968;52.342;5.528;2023-02-16T02:12:26;102244.22;;;4.78;74.17
43161;BME280;40968;52.342;5.528;2023-02-16T02:14:57;102205.91;;;4.55;74.39
43161;BME280;40968;52.342;5.528;2023-02-16T02:17:24;102299.03;;;5.13;74.31
43161;BME280;40968;52.342;5.528;2023-02-16T02:19:58;102299.94;;;5.14;74.34
43161;BME280;40968;52.342;5.528;2023-02-16T02:22:57;102232.69;;;4.79;74.23
43161;BME280;40968;52.342;5.528;2023-02-16T02:29:05;102219.78;;;4.67;74.58
43161;BME280;40968;52.342;5.528;2023-02-16T02:31:44;102289.31;;;5.14;74.48
43161;BME280;40968;52.342;5.528;2023-02-16T02:34:21;102229.44;;;4.69;74.62
43161;BME280;40968;52.342;5.528;2023-02-16T02:36:59;102248.25;;;4.93;74.71
43161;BME280;40968;52.342;5.528;2023-02-16T02:39:34;102277.72;;;5.17;74.72
43161;BME280;40968;52.342;5.528;2023-02-16T02:42:09;102277.75;;;5.15;74.69
43161;BME280;40968;52.342;5.528;2023-02-16T02:44:45;102249.88;;;4.98;74.73
43161;BME280;40968;52.342;5.528;2023-02-16T02:47:13;102053.84;;;3.86;74.50
43161;BME280;40968;52.342;5.528;2023-02-16T02:49:39;102275.09;;;5.15;74.88
43161;BME280;40968;52.342;5.528;2023-02-16T02:52:06;102284.00;;;5.14;74.85
43161;BME280;40968;52.342;5.528;2023-02-16T02:54:37;102264.47;;;5.15;74.92
43161;BME280;40968;52.342;5.528;2023-02-16T02:57:26;102057.34;;;3.86;74.75
43161;BME280;40968;52.342;5.528;2023-02-16T03:00:16;102214.84;;;4.84;74.75
43161;BME280;40968;52.342;5.528;2023-02-16T03:03:04;102231.25;;;4.98;74.86
43161;BME280;40968;52.342;5.528;2023-02-16T03:05:35;102256.50;;;5.13;74.71
43161;BME280;40968;52.342;5.528;2023-02-16T03:08:07;102225.25;;;4.92;74.94
43161;BME280;40968;52.342;5.528;2023-02-16T03:10:41;102219.00;;;4.94;75.10
43161;BME280;40968;52.342;5.528;2023-02-16T03:13:28;102254.75;;;5.14;74.72
43161;BME280;40968;52.342;5.528;2023-02-16T03:15:58;102215.59;;;4.89;74.78
43161;BME280;40968;52.342;5.528;2023-02-16T03:18:29;102262.63;;;5.17;75.05
43161;BME280;40968;52.342;5.528;2023-02-16T03:21:14;102086.03;;;4.06;75.13
43161;BME280;40968;52.342;5.528;2023-02-16T03:24:00;102228.56;;;5.00;74.96
43161;BME280;40968;52.342;5.528;2023-02-16T03:26:47;102120.63;;;4.35;74.91
43161;BME280;40968;52.342;5.528;2023-02-16T03:29:32;102171.03;;;4.68;75.10
43161;BME280;40968;52.342;5.528;2023-02-16T03:32:02;102244.84;;;5.19;74.94
43161;BME280;40968;52.342;5.528;2023-02-16T03:34:29;102196.88;;;4.92;74.96
43161;BME280;40968;52.342;5.528;2023-02-16T03:36:58;102241.28;;;5.20;75.15
43161;BME280;40968;52.342;5.528;2023-02-16T03:39:26;102115.09;;;4.42;74.92
43161;BME280;40968;52.342;5.528;2023-02-16T03:41:55;102253.56;;;5.24;75.25
43161;BME280;40968;52.342;5.528;2023-02-16T03:44:22;102203.94;;;4.93;74.88
43161;BME280;40968;52.342;5.528;2023-02-16T03:46:49;102221.22;;;5.10;75.13
43161;BME280;40968;52.342;5.528;2023-02-16T03:49:18;102223.88;;;5.10;75.08
43161;BME280;40968;52.342;5.528;2023-02-16T03:51:45;102199.28;;;5.02;75.00
43161;BME280;40968;52.342;5.528;2023-02-16T03:54:12;102195.72;;;5.03;75.01
43161;BME280;40968;52.342;5.528;2023-02-16T03:56:39;102187.09;;;4.94;75.01
43161;BME280;40968;52.342;5.528;2023-02-16T03:59:05;102090.59;;;4.32;74.87
43161;BME280;40968;52.342;5.528;2023-02-16T04:01:32;102225.47;;;5.15;75.04
43161;BME280;40968;52.342;5.528;2023-02-16T04:03:58;102239.16;;;5.31;75.03
43161;BME280;40968;52.342;5.528;2023-02-16T04:06:26;102180.16;;;4.90;74.94
43161;BME280;40968;52.342;5.528;2023-02-16T04:08:53;102253.28;;;5.34;75.10
43161;BME280;40968;52.342;5.528;2023-02-16T04:11:19;102241.75;;;5.35;75.13
43161;BME280;40968;52.342;5.528;2023-02-16T04:14:03;102173.81;;;4.94;75.08
43161;BME280;40968;52.342;5.528;2023-02-16T04:16:30;102068.69;;;4.26;75.06
43161;BME280;40968;52.342;5.528;2023-02-16T04:18:57;102141.81;;;4.68;74.76
43161;BME280;40968;52.342;5.528;2023-02-16T04:21:23;102108.72;;;4.48;75.13
43161;BME280;40968;52.342;5.528;2023-02-16T04:23:51;102247.97;;;5.34;75.24
43161;BME280;40968;52.342;5.528;2023-02-16T04:26:18;102189.53;;;5.02;75.48
43161;BME280;40968;52.342;5.528;2023-02-16T04:28:44;102200.75;;;5.12;75.11
43161;BME280;40968;52.342;5.528;2023-02-16T04:31:11;102239.09;;;5.35;75.04
43161;BME280;40968;52.342;5.528;2023-02-16T04:33:37;102183.53;;;4.95;75.13
43161;BME280;40968;52.342;5.528;2023-02-16T04:36:04;102247.94;;;5.35;75.21
43161;BME280;40968;52.342;5.528;2023-02-16T04:38:31;102216.44;;;5.21;75.14
43161;BME280;40968;52.342;5.528;2023-02-16T04:40:59;102179.94;;;4.96;74.82
43161;BME280;40968;52.342;5.528;2023-02-16T04:43:26;102173.88;;;4.93;74.86
43161;BME280;40968;52.342;5.528;2023-02-16T04:45:52;102252.19;;;5.41;74.95
43161;BME280;40968;52.342;5.528;2023-02-16T04:48:19;102214.59;;;5.23;74.81
43161;BME280;40968;52.342;5.528;2023-02-16T04:50:45;102244.19;;;5.42;74.81
43161;BME280;40968;52.342;5.528;2023-02-16T04:53:12;102237.06;;;5.43;74.79
43161;BME280;40968;52.342;5.528;2023-02-16T04:55:38;102200.47;;;5.21;74.93
43161;BME280;40968;52.342;5.528;2023-02-16T04:58:06;102236.09;;;5.45;74.66
43161;BME280;40968;52.342;5.528;2023-02-16T05:00:33;102234.28;;;5.46;74.80
43161;BME280;40968;52.342;5.528;2023-02-16T05:02:59;102205.72;;;5.24;74.67
43161;BME280;40968;52.342;5.528;2023-02-16T05:05:26;102171.56;;;5.10;74.67
43161;BME280;40968;52.342;5.528;2023-02-16T05:07:53;102176.84;;;5.12;74.67
43161;BME280;40968;52.342;5.528;2023-02-16T05:10:20;102201.19;;;5.28;74.59
43161;BME280;40968;52.342;5.528;2023-02-16T05:12:46;102203.78;;;5.29;74.61
43161;BME280;40968;52.342;5.528;2023-02-16T05:15:31;102238.53;;;5.53;74.55
43161;BME280;40968;52.342;5.528;2023-02-16T05:17:58;102123.50;;;4.88;74.50
43161;BME280;40968;52.342;5.528;2023-02-16T05:20:24;102231.34;;;5.55;74.46
43161;BME280;40968;52.342;5.528;2023-02-16T05:23:11;102211.22;;;5.48;74.53
43161;BME280;40968;52.342;5.528;2023-02-16T05:25:38;102185.03;;;5.34;74.70
43161;BME280;40968;52.342;5.528;2023-02-16T05:28:04;102226.94;;;5.56;74.49
43161;BME280;40968;52.342;5.528;2023-02-16T05:30:32;102189.31;;;5.40;74.71
43161;BME280;40968;52.342;5.528;2023-02-16T05:32:59;102176.94;;;5.39;74.68
43161;BME280;40968;52.342;5.528;2023-02-16T05:35:26;102205.66;;;5.56;74.62
43161;BME280;40968;52.342;5.528;2023-02-16T05:37:53;102162.00;;;5.33;74.81
43161;BME280;40968;52.342;5.528;2023-02-16T05:40:19;102205.66;;;5.56;74.71
43161;BME280;40968;52.342;5.528;2023-02-16T05:42:46;102178.66;;;5.40;74.85
43161;BME280;40968;52.342;5.528;2023-02-16T05:45:12;102167.25;;;5.36;75.10
43161;BME280;40968;52.342;5.528;2023-02-16T05:47:41;102201.19;;;5.56;74.80
43161;BME280;40968;52.342;5.528;2023-02-16T05:50:08;102207.41;;;5.55;74.91
43161;BME280;40968;52.342;5.528;2023-02-16T05:52:34;102200.47;;;5.51;74.90
43161;BME280;40968;52.342;5.528;2023-02-16T05:55:01;102107.56;;;4.88;74.82
43161;BME280;40968;52.342;5.528;2023-02-16T05:57:28;102178.03;;;5.31;74.87
43161;BME280;40968;52.342;5.528;2023-02-16T05:59:54;102220.69;;;5.57;74.95
43161;BME280;40968;52.342;5.528;2023-02-16T06:02:21;102160.72;;;5.18;74.87
43161;BME280;40968;52.342;5.528;2023-02-16T06:04:49;102218.06;;;5.55;75.06
43161;BME280;40968;52.342;5.528;2023-02-16T06:07:16;102218.13;;;5.54;75.25
43161;BME280;40968;52.342;5.528;2023-02-16T06:09:42;102229.63;;;5.54;75.18
43161;BME280;40968;52.342;5.528;2023-02-16T06:12:09;102186.97;;;5.29;75.16
43161;BME280;40968;52.342;5.528;2023-02-16T06:14:35;102093.84;;;4.74;75.32
43161;BME280;40968;52.342;5.528;2023-02-16T06:17:02;102184.25;;;5.30;75.44
43161;BME280;40968;52.342;5.528;2023-02-16T06:19:28;102233.22;;;5.53;75.47
43161;BME280;40968;52.342;5.528;2023-02-16T06:21:56;102177.50;;;5.20;75.10
43161;BME280;40968;52.342;5.528;2023-02-16T06:24:23;102202.69;;;5.37;75.38
43161;BME280;40968;52.342;5.528;2023-02-16T06:26:49;102178.47;;;5.18;75.69
43161;BME280;40968;52.342;5.528;2023-02-16T06:29:16;102162.59;;;5.14;75.63
43161;BME280;40968;52.342;5.528;2023-02-16T06:31:42;102231.34;;;5.55;75.76
43161;BME280;40968;52.342;5.528;2023-02-16T06:34:09;102193.91;;;5.33;75.66
43161;BME280;40968;52.342;5.528;2023-02-16T06:36:35;102086.03;;;4.69;75.75
43161;BME280;40968;52.342;5.528;2023-02-16T06:39:04;102245.50;;;5.57;75.73
43161;BME280;40968;52.342;5.528;2023-02-16T06:41:30;102219.38;;;5.42;75.66
43161;BME280;40968;52.342;5.528;2023-02-16T06:44:00;102236.59;;;5.58;75.75
43161;BME280;40968;52.342;5.528;2023-02-16T06:46:27;102164.38;;;5.14;75.65
43161;BME280;40968;52.342;5.528;2023-02-16T06:48:54;102165.91;;;5.21;75.68
43161;BME280;40968;52.342;5.528;2023-02-16T06:51:21;102076.38;;;4.65;75.64
43161;BME280;40968;52.342;5.528;2023-02-16T06:53:48;102160.59;;;5.21;75.88
43161;BME280;40968;52.342;5.528;2023-02-16T06:56:16;102229.44;;;5.60;75.83
43161;BME280;40968;52.342;5.528;2023-02-16T06:58:43;102224.09;;;5.60;75.85
43161;BME280;40968;52.342;5.528;2023-02-16T07:01:09;102186.00;;;5.31;75.66
43161;BME280;40968;52.342;5.528;2023-02-16T07:03:36;102238.25;;;5.62;75.97
43161;BME280;40968;52.342;5.528;2023-02-16T07:06:03;102216.38;;;5.53;75.95
43161;BME280;40968;52.342;5.528;2023-02-16T07:08:29;102203.47;;;5.40;75.89
43161;BME280;40968;52.342;5.528;2023-02-16T07:10:56;102233.72;;;5.64;76.05
43161;BME280;40968;52.342;5.528;2023-02-16T07:13:24;102241.69;;;5.64;75.86
43161;BME280;40968;52.342;5.528;2023-02-16T07:15:51;102249.69;;;5.64;75.91
43161;BME280;40968;52.342;5.528;2023-02-16T07:18:17;102210.59;;;5.40;75.98
43161;BME280;40968;52.342;5.528;2023-02-16T07:20:44;102173.91;;;5.21;75.91
43161;BME280;40968;52.342;5.528;2023-02-16T07:23:10;102180.88;;;5.25;76.08
43161;BME280;40968;52.342;5.528;2023-02-16T07:25:37;102105.94;;;4.84;76.24
43161;BME280;40968;52.342;5.528;2023-02-16T07:28:04;102014.53;;;4.31;75.98
43161;BME280;40968;52.342;5.528;2023-02-16T07:30:32;102247.69;;;5.73;76.09
43161;BME280;40968;52.342;5.528;2023-02-16T07:32:58;102194.63;;;5.40;76.03
43161;BME280;40968;52.342;5.528;2023-02-16T07:35:25;102151.19;;;5.11;76.00
43161;BME280;40968;52.342;5.528;2023-02-16T07:37:52;102189.31;;;5.40;76.10
43161;BME280;40968;52.342;5.528;2023-02-16T07:40:18;102233.66;;;5.68;76.19
43161;BME280;40968;52.342;5.528;2023-02-16T07:42:45;102198.81;;;5.47;76.02
43161;BME280;40968;52.342;5.528;2023-02-16T07:45:12;102206.66;;;5.52;76.10
43161;BME280;40968;52.342;5.528;2023-02-16T07:47:39;102219.00;;;5.54;76.07
43161;BME280;40968;52.342;5.528;2023-02-16T07:50:07;102259.72;;;5.85;76.11
43161;BME280;40968;52.342;5.528;2023-02-16T07:52:34;102221.38;;;5.63;76.06
43161;BME280;40968;52.342;5.528;2023-02-16T07:55:01;102184.66;;;5.46;76.08
43161;BME280;40968;52.342;5.528;2023-02-16T07:57:27;102209.91;;;5.61;76.03
43161;BME280;40968;52.342;5.528;2023-02-16T07:59:54;102263.84;;;5.93;76.04
43161;BME280;40968;52.342;5.528;2023-02-16T08:02:22;102129.94;;;5.11;75.96
43161;BME280;40968;52.342;5.528;2023-02-16T08:04:50;102276.16;;;5.97;76.14
43161;BME280;40968;52.342;5.528;2023-02-16T08:07:18;102274.34;;;6.00;76.13
43161;BME280;40968;52.342;5.528;2023-02-16T08:09:44;102166.38;;;5.36;76.01
43161;BME280;40968;52.342;5.528;2023-02-16T08:12:12;102229.13;;;5.70;76.11
43161;BME280;40968;52.342;5.528;2023-02-16T08:14:39;102220.34;;;5.68;76.23
43161;BME280;40968;52.342;5.528;2023-02-16T08:17:06;102215.22;;;5.61;76.00
43161;BME280;40968;52.342;5.528;2023-02-16T08:19:33;102288.31;;;6.08;75.99
43161;BME280;40968;52.342;5.528;2023-02-16T08:22:03;102257.72;;;5.91;76.19
43161;BME280;40968;52.342;5.528;2023-02-16T08:24:30;102243.75;;;5.85;76.19
43161;BME280;40968;52.342;5.528;2023-02-16T08:26:58;102261.94;;;5.98;76.14
43161;BME280;40968;52.342;5.528;2023-02-16T08:29:25;102259.44;;;5.94;76.06
43161;BME280;40968;52.342;5.528;2023-02-16T08:31:51;102282.69;;;6.16;76.08
43161;BME280;40968;52.342;5.528;2023-02-16T08:34:21;102231.25;;;5.87;76.24
43161;BME280;40968;52.342;5.528;2023-02-16T08:36:51;102286.16;;;6.19;76.26
43161;BME280;40968;52.342;5.528;2023-02-16T08:39:23;102285.16;;;6.22;76.23
43161;BME280;40968;52.342;5.528;2023-02-16T08:41:50;102272.09;;;6.14;76.11
43161;BME280;40968;52.342;5.528;2023-02-16T08:44:18;102270.47;;;6.10;76.19
43161;BME280;40968;52.342;5.528;2023-02-16T08:46:46;102257.34;;;6.05;76.08
43161;BME280;40968;52.342;5.528;2023-02-16T08:49:14;102234.88;;;5.84;75.90
43161;BME280;40968;52.342;5.528;2023-02-16T08:51:44;102224.16;;;5.87;75.99
43161;BME280;40968;52.342;5.528;2023-02-16T08:54:15;102291.09;;;6.32;76.02
43161;BME280;40968;52.342;5.528;2023-02-16T08:56:43;102296.34;;;6.33;75.95
43161;BME280;40968;52.342;5.528;2023-02-16T08:59:13;102289.38;;;6.29;75.90
43161;BME280;40968;52.342;5.528;2023-02-16T09:01:40;102264.06;;;6.16;75.83
43161;BME280;40968;52.342;5.528;2023-02-16T09:04:07;102255.53;;;6.06;75.78
43161;BME280;40968;52.342;5.528;2023-02-16T09:06:36;102113.69;;;5.20;75.93
43161;BME280;40968;52.342;5.528;2023-02-16T09:09:03;102211.09;;;5.79;75.95
43161;BME280;40968;52.342;5.528;2023-02-16T09:11:30;102280.75;;;6.22;76.04
43161;BME280;40968;52.342;5.528;2023-02-16T09:13:58;102183.97;;;5.68;76.20
43161;BME280;40968;52.342;5.528;2023-02-16T09:16:25;102277.13;;;6.23;76.36
43161;BME280;40968;52.342;5.528;2023-02-16T09:18:54;102250.25;;;6.04;76.60
43161;BME280;40968;52.342;5.528;2023-02-16T09:21:23;102313.78;;;6.42;77.00
43161;BME280;40968;52.342;5.528;2023-02-16T09:23:53;102216.06;;;5.90;77.08
43161;BME280;40968;52.342;5.528;2023-02-16T09:26:23;102266.47;;;6.23;77.53
43161;BME280;40968;52.342;5.528;2023-02-16T09:28:50;102253.59;;;6.11;77.80
43161;BME280;40968;52.342;5.528;2023-02-16T09:31:21;102297.88;;;6.40;78.04
43161;BME280;40968;52.342;5.528;2023-02-16T09:33:55;102295.94;;;6.45;78.15
43161;BME280;40968;52.342;5.528;2023-02-16T09:36:22;102216.50;;;6.05;78.40
43161;BME280;40968;52.342;5.528;2023-02-16T09:38:49;102109.69;;;5.35;78.59
43161;BME280;40968;52.342;5.528;2023-02-16T09:41:26;102245.41;;;6.17;78.94
43161;BME280;40968;52.342;5.528;2023-02-16T09:43:57;102288.84;;;6.44;79.23
43161;BME280;40968;52.342;5.528;2023-02-16T09:46:28;102288.06;;;6.42;79.36
43161;BME280;40968;52.342;5.528;2023-02-16T09:48:56;102143.59;;;5.55;79.49
43161;BME280;40968;52.342;5.528;2023-02-16T09:51:26;102134.88;;;5.50;79.73
43161;BME280;40968;52.342;5.528;2023-02-16T09:53:58;102127.06;;;5.45;79.99
43161;BME280;40968;52.342;5.528;2023-02-16T09:56:28;102221.06;;;6.01;80.33
43161;BME280;40968;52.342;5.528;2023-02-16T09:59:01;102302.22;;;6.43;80.33
43161;BME280;40968;52.342;5.528;2023-02-16T10:01:35;102142.00;;;5.50;80.65
43161;BME280;40968;52.342;5.528;2023-02-16T10:04:23;102310.13;;;6.46;81.00
43161;BME280;40968;52.342;5.528;2023-02-16T10:07:00;102308.31;;;6.46;81.16
43161;BME280;40968;52.342;5.528;2023-02-16T10:09:31;102263.06;;;6.20;81.05
43161;BME280;40968;52.342;5.528;2023-02-16T10:12:01;102273.56;;;6.24;81.32
43161;BME280;40968;52.342;5.528;2023-02-16T10:14:32;102310.13;;;6.46;81.40
43161;BME280;40968;52.342;5.528;2023-02-16T10:17:05;102302.94;;;6.48;81.66
43161;BME280;40968;52.342;5.528;2023-02-16T10:19:36;102181.22;;;5.71;81.94
43161;BME280;40968;52.342;5.528;2023-02-16T10:22:07;102279.28;;;6.39;81.93
43161;BME280;40968;52.342;5.528;2023-02-16T10:24:43;102201.47;;;6.04;82.26
43161;BME280;40968;52.342;5.528;2023-02-16T10:27:15;102161.41;;;5.80;82.20
43161;BME280;40968;52.342;5.528;2023-02-16T10:29:41;102222.16;;;6.22;82.40
43161;BME280;40968;52.342;5.528;2023-02-16T10:32:17;102121.97;;;5.66;82.28
43161;BME280;40968;52.342;5.528;2023-02-16T10:34:48;102303.53;;;6.83;82.42
43161;BME280;40968;52.342;5.528;2023-02-16T10:37:24;102152.91;;;5.95;82.44
43161;BME280;40968;52.342;5.528;2023-02-16T10:40:08;102286.00;;;6.76;82.53
43161;BME280;40968;52.342;5.528;2023-02-16T10:42:42;102305.81;;;6.94;82.49
43161;BME280;40968;52.342;5.528;2023-02-16T10:45:20;102169.22;;;6.13;82.55
43161;BME280;40968;52.342;5.528;2023-02-16T10:47:49;102310.75;;;7.05;82.71
43161;BME280;40968;52.342;5.528;2023-02-16T10:50:22;102247.06;;;6.72;82.78
43161;BME280;40968;52.342;5.528;2023-02-16T10:52:51;102220.09;;;6.56;82.70
43161;BME280;40968;52.342;5.528;2023-02-16T10:55:21;102313.09;;;7.14;82.77
43161;BME280;40968;52.342;5.528;2023-02-16T10:57:54;102190.50;;;6.40;82.35
43161;BME280;40968;52.342;5.528;2023-02-16T11:00:27;102309.63;;;7.12;82.65
43161;BME280;40968;52.342;5.528;2023-02-16T11:03:01;102306.94;;;7.12;82.68
43161;BME280;40968;52.342;5.528;2023-02-16T11:05:32;102265.88;;;6.92;82.91
43161;BME280;40968;52.342;5.528;2023-02-16T11:07:59;102293.50;;;7.15;82.77
43161;BME280;40968;52.342;5.528;2023-02-16T11:10:35;102261.13;;;7.01;83.07
43161;BME280;40968;52.342;5.528;2023-02-16T11:13:02;102267.28;;;7.03;83.20
43161;BME280;40968;52.342;5.528;2023-02-16T11:15:29;102216.63;;;6.79;83.20
43161;BME280;40968;52.342;5.528;2023-02-16T11:17:58;102152.03;;;6.47;83.04
43161;BME280;40968;52.342;5.528;2023-02-16T11:20:31;102262.38;;;7.16;83.18
43161;BME280;40968;52.342;5.528;2023-02-16T11:23:12;102260.47;;;7.19;83.05
43161;BME280;40968;52.342;5.528;2023-02-16T11:25:39;102234.09;;;7.11;83.12
43161;BME280;40968;52.342;5.528;2023-02-16T11:28:07;102208.78;;;7.00;83.11
43161;BME280;40968;52.342;5.528;2023-02-16T11:30:35;102224.34;;;7.10;82.95
43161;BME280;40968;52.342;5.528;2023-02-16T11:33:18;102275.25;;;7.52;82.89
43161;BME280;40968;52.342;5.528;2023-02-16T11:35:47;102140.41;;;6.75;82.81
43161;BME280;40968;52.342;5.528;2023-02-16T11:38:27;102183.47;;;7.10;82.91
43161;BME280;40968;52.342;5.528;2023-02-16T11:40:54;102267.81;;;7.60;83.11
43161;BME280;40968;52.342;5.528;2023-02-16T11:43:25;102198.53;;;7.35;82.72
43161;BME280;40968;52.342;5.528;2023-02-16T11:45:59;102253.00;;;7.75;82.82
43161;BME280;40968;52.342;5.528;2023-02-16T11:48:28;102109.31;;;6.97;82.75
43161;BME280;40968;52.342;5.528;2023-02-16T11:50:58;102094.44;;;6.92;82.81
43161;BME280;40968;52.342;5.528;2023-02-16T11:53:28;102246.97;;;7.92;82.88
43161;BME280;40968;52.342;5.528;2023-02-16T11:56:11;102205.88;;;7.74;82.58
43161;BME280;40968;52.342;5.528;2023-02-16T11:58:38;102233.69;;;7.90;82.44
43161;BME280;40968;52.342;5.528;2023-02-16T12:01:16;102221.16;;;7.92;82.60
43161;BME280;40968;52.342;5.528;2023-02-16T12:03:54;102247.09;;;8.11;82.27
43161;BME280;40968;52.342;5.528;2023-02-16T12:06:37;102252.31;;;8.14;82.13
43161;BME280;40968;52.342;5.528;2023-02-16T12:09:18;102243.09;;;8.21;82.33
43161;BME280;40968;52.342;5.528;2023-02-16T12:11:56;102242.78;;;8.29;82.11
43161;BME280;40968;52.342;5.528;2023-02-16T12:14:32;102172.59;;;8.05;82.02
43161;BME280;40968;52.342;5.528;2023-02-16T12:17:06;102159.50;;;7.99;81.50
43161;BME280;40968;52.342;5.528;2023-02-16T12:19:40;102224.31;;;8.45;81.59
43161;BME280;40968;52.342;5.528;2023-02-16T12:22:18;102224.06;;;8.51;81.45
43161;BME280;40968;52.342;5.528;2023-02-16T12:24:56;102170.41;;;8.35;81.39
43161;BME280;40968;52.342;5.528;2023-02-16T12:27:30;102124.28;;;8.11;81.34
43161;BME280;40968;52.342;5.528;2023-02-16T12:30:11;102147.88;;;8.41;81.12
43161;BME280;40968;52.342;5.528;2023-02-16T12:32:52;102200.06;;;8.91;80.95
43161;BME280;40968;52.342;5.528;2023-02-16T12:35:40;102083.38;;;8.50;80.30
43161;BME280;40968;52.342;5.528;2023-02-16T12:38:19;102140.91;;;8.97;80.14
43161;BME280;40968;52.342;5.528;2023-02-16T12:40:56;102144.38;;;9.18;79.24
43161;BME280;40968;52.342;5.528;2023-02-16T12:43:33;102176.78;;;9.50;78.21
43161;BME280;40968;52.342;5.528;2023-02-16T12:46:05;102170.59;;;9.67;78.10
43161;BME280;40968;52.342;5.528;2023-02-16T12:48:40;102080.88;;;9.41;76.97
43161;BME280;40968;52.342;5.528;2023-02-16T12:51:14;102114.84;;;9.75;76.54
43161;BME280;40968;52.342;5.528;2023-02-16T12:53:47;102152.44;;;10.09;75.45
43161;BME280;40968;52.342;5.528;2023-02-16T12:56:19;102114.28;;;9.86;74.51
43161;BME280;40968;52.342;5.528;2023-02-16T12:58:48;102143.59;;;10.07;74.16
43161;BME280;40968;52.342;5.528;2023-02-16T13:01:22;102138.25;;;10.07;74.13
43161;BME280;40968;52.342;5.528;2023-02-16T13:03:54;102067.50;;;9.58;74.02
43161;BME280;40968;52.342;5.528;2023-02-16T13:06:26;102139.72;;;10.12;73.64
43161;BME280;40968;52.342;5.528;2023-02-16T13:09:00;102140.06;;;10.24;73.56
43161;BME280;40968;52.342;5.528;2023-02-16T13:11:34;102148.63;;;10.31;72.95
43161;BME280;40968;52.342;5.528;2023-02-16T13:14:05;102033.75;;;9.73;72.79
43161;BME280;40968;52.342;5.528;2023-02-16T13:16:40;102134.13;;;10.35;72.69
43161;BME280;40968;52.342;5.528;2023-02-16T13:19:11;102138.88;;;10.47;72.38
43161;BME280;40968;52.342;5.528;2023-02-16T13:21:50;102128.47;;;10.41;72.16